x

Neah Bay, - 6nm North Of Cape Flattery, Wa (traffic Separation Lighted Buoy) (46087) Weather Station

5:20 - Thu 28th Aug 2014 All times are PDT. -7 hours from GMT.

  • Wind
    7mph
  • Sea Temp 54°f
  • Aire Temp 55°f
  • Sea Pressure 1018.4mb
  • Neah Bay, - 6nm North Of Cape Flattery, Wa     (traffic Separation Lighted Buoy)
  • Neah Bay, - 6nm North Of Cape Flattery, Wa     (traffic Separation Lighted Buoy)

More Historic Weather Station data

Upgrade to MSW Pro to gain access to the past 30 days of data for over 8000 Wavebouys and Weather Stations around the globe.

Join Pro

Comparision Forecast

View Surf forecast
   
jue 08/28 5:20  -   -   -  7
mph
1018.4mb 54f 55f
4:50 2.5ft 7s 5s 7 9 mph 1018.4mb 54f 55f
4:20  -   -   -  7 9 mph 1018.4mb 54f 55f
3:50 2.5ft 7s 6s 9
mph
1018.4mb 54f 55f
3:20  -   -   -  9
mph
1018.2mb 54f 55f
2:50 3ft 7s 5s 9
mph
1018.2mb 54f 55f
2:20  -   -   -  9 11 mph 1018.2mb 54f 55f
1:50 3ft 7s 6s 9
mph
1018.2mb 54f 55f
1:20  -   -   -  9
mph
1018.2mb 53f 55f
12:50 3.5ft 8s 6s 9 11 mph 1018.1mb 53f 56f
12:20  -   -   -  9 11 mph 1018mb 53f 55f
mié 08/27 11:50 3ft 8s 6s 9
mph
1018.1mb 53f 55f
11:20  -   -   -  11
mph
1018mb 53f 56f
10:50 3ft 8s 6s 9
mph
1018.1mb 53f 56f
10:20  -   -   -  9
mph
1018.3mb 53f 56f
9:50 3ft 8s 6s 9
mph
1018.4mb 53f 56f
9:20  -   -   -  9
mph
1018.5mb 53f 56f
8:50 3ft 8s 6s 9 11 mph 1018.4mb 54f 56f
8:20  -   -   -  9 11 mph 1018.2mb 54f 56f
7:50 3ft 8s 6s 7 9 mph 1018.2mb 54f 55f
7:20  -   -   -  7 9 mph 1018.3mb 54f 56f
6:50 3ft 6s 5s 9 11 mph 1018.5mb 54f 56f
6:20  -   -   -  11 13 mph 1018.4mb 54f 56f
5:50 3ft 8s 6s 11 13 mph 1018.3mb 53f 56f
5:20  -   -   -  11 13 mph 1018.3mb 53f 57f
4:50 3ft 7s 5s 11 13 mph 1018.4mb 53f 56f
4:20  -   -   -  11 13 mph 1018.3mb 54f 56f
3:50 3.5ft 8s 5s 13 16 mph 1018.3mb 54f 55f
3:20  -   -   -  9 11 mph 1018.4mb 54f 55f
2:50 3.5ft 7s 5s 9 11 mph 1018.5mb 53f 55f
2:20  -   -   -  9 11 mph 1018.6mb 53f 54f
1:50 3.5ft 8s 6s 11 13 mph 1018.5mb 53f 53f
1:20  -   -   -  11 13 mph 1018.5mb 53f 53f
12:50 4ft 8s 6s 9 11 mph 1018.6mb 52f 53f
12:20  -   -   -  11 13 mph 1018.5mb 52f 54f
11:50 3.5ft 8s 6s 9 11 mph 1018.5mb 53f 54f
11:20  -   -   -  7 9 mph 1018.5mb 53f 53f
10:50 3.5ft 7s 6s 7
mph
1018.4mb 53f 54f
10:20  -   -   -  11
mph
1018.3mb 53f 54f
9:50 3ft 6s 6s 9 11 mph 1018.2mb 53f 54f
9:20  -   -   -  9 11 mph 1018mb 53f 54f
8:50 3.5ft 9s 7s 7 9 mph 1018.1mb 53f 54f
8:20  -   -   -  9 11 mph 1017.9mb 53f 54f
7:50 3.5ft 8s 6s 7 9 mph 1017.8mb 53f 54f
7:20  -   -   -  7
mph
1017.7mb 53f 54f
6:50 3.5ft 9s 6s 7 9 mph 1017.5mb 53f 55f
6:20  -   -   -  7
mph
1017.3mb 53f 54f
5:50 3.5ft 8s 6s 9
mph
1017.2mb 54f 55f
5:20  -   -   -  7 9 mph 1016.9mb 53f 54f
4:50 3ft 8s 6s 9 11 mph 1016.8mb 54f 54f
4:20  -   -   -  7
mph
1016.7mb 54f 54f
3:50 3.5ft 8s 6s 4 7 mph 1016.6mb 54f 55f
3:20  -   -   -  4 7 mph 1016.7mb 54f 55f
2:50 4ft 8s 6s 7
mph
1016.8mb 54f 54f
2:20  -   -   -  7 9 mph 1016.8mb 53f 54f
1:50 3.5ft 8s 6s 9 11 mph 1016.5mb 53f 54f
1:20  -   -   -  9 11 mph 1016.6mb 53f 55f
12:50 3.5ft 8s 6s 9 11 mph 1016.6mb 53f 55f
12:20  -   -   -  9 11 mph 1016.6mb 53f 55f
mar 08/26 11:50 3.5ft 8s 6s 9 11 mph 1016.6mb 54f 55f
11:20  -   -   -  9 11 mph 1016.6mb 54f 55f
10:50 3ft 9s 7s 7 9 mph 1016.7mb 54f 55f
10:20  -   -   -  9
mph
1016.8mb 53f 55f
9:50 3.5ft 9s 7s 9
mph
1016.8mb 54f 55f
9:20  -   -   -  9 11 mph 1016.9mb 54f 55f
8:50 3.5ft 9s 7s 9 11 mph 1016.9mb 54f 56f
8:20  -   -   -  11 13 mph 1016.7mb 54f 56f
7:50 3ft 9s 6s 9 11 mph 1016.4mb 54f 56f
7:20  -   -   -  9 11 mph 1016.5mb 55f 56f
6:50 3.5ft 8s 6s 9 11 mph 1016.7mb 55f 56f
6:20  -   -   -  9
mph
1016.7mb 55f 56f
5:50 3.5ft 8s 6s 7 9 mph 1016.8mb 55f 56f
5:20  -   -   -  9 11 mph 1017mb 55f 57f
4:50 3.5ft 7s 6s 9
mph
1017.2mb 55f 57f
4:20  -   -   -  7 9 mph 1017.2mb 56f 57f
3:50 4ft 8s 6s 7
mph
1017.4mb 55f 56f
3:20  -   -   -  4 7 mph 1017.7mb 55f 56f
2:50 4ft 7s 6s 7
mph
1017.9mb 55f 56f
1:50 4ft 6s 5s 4 7 mph 1017.9mb 55f 55f
1:20  -   -   -  4 7 mph 1018.1mb 55f 54f
12:50 4ft 6s 5s 4 7 mph 1018.2mb 54f 54f
12:20  -   -   -  4 7 mph 1018.3mb 54f 54f
11:50 3.5ft 6s 6s 4
mph
1018.2mb 54f 53f
11:20  -   -   -  2 4 mph 1018.2mb 54f 53f
10:50 4ft 7s 6s 4
mph
1018.2mb 53f 53f
10:20  -   -   -  4 7 mph 1018.3mb 53f 53f
9:50 3.5ft 7s 6s 2 4 mph 1018.2mb 53f 53f
9:20  -   -   -   -  2 mph 1018.1mb 53f 53f
8:50 3.5ft 7s 6s 2 4 mph 1018.1mb 53f 53f
8:20  -   -   -  2
mph
1018.1mb 53f 52f
7:50 3.5ft 7s 6s 2
mph
1017.9mb 53f 52f
7:20  -   -   -  4 7 mph 1017.7mb 53f 52f
6:50 3.5ft 7s 6s 4
mph
1017.5mb 53f 53f
6:20  -   -   -  4 7 mph 1017.2mb 53f 53f
5:50 3.5ft 7s 6s 2 4 mph 1017mb 53f 53f
5:20  -   -   -  2 4 mph 1016.9mb 53f 54f
4:50 3.5ft 7s 6s 2 4 mph 1016.9mb 53f 53f
4:20  -   -   -  4 7 mph 1016.8mb 54f 54f
3:50 3.5ft 7s 6s 7
mph
1016.6mb 54f 54f
3:20  -   -   -  4
mph
1016.7mb 54f 54f
2:50 3ft 6s 5s 4 7 mph 1016.7mb 54f 53f
2:20  -   -   -  7 9 mph 1016.6mb 54f 54f
1:50 3ft 6s 5s 4
mph
1016.6mb 54f 54f
1:20  -   -   -  7 9 mph 1016.6mb 54f 54f
12:50 3ft 7s 5s 7
mph
1016.6mb 54f 55f
12:20  -   -   -  7
mph
1016.6mb 53f 55f
lun 08/25 11:50 3ft 7s 6s 7
mph
1016.5mb 52f 55f
11:20  -   -   -  7 9 mph 1016.6mb 52f 54f
10:50 3ft 7s 6s 7 9 mph 1016.6mb 52f 54f
10:20  -   -   -  9
mph
1016.5mb 53f 55f
9:50 3.5ft 7s 6s 7 11 mph 1016.5mb 53f 54f
9:20  -   -   -  9
mph
1016.3mb 53f 54f
8:50 3ft 7s 6s 9 11 mph 1016.1mb 53f 54f
8:20  -   -   -  9
mph
1015.8mb 53f 53f
7:50 4ft 7s 6s 7 9 mph 1015.8mb 54f 54f
7:20  -   -   -  9
mph
1015.8mb 54f 54f
6:50 4.5ft 7s 6s 11 13 mph 1015.9mb 53f 54f
6:20  -   -   -  9 11 mph 1015.9mb 53f 54f
5:50 4.5ft 7s 6s 11 13 mph 1015.9mb 53f 54f
5:20  -   -   -  11 13 mph 1016mb 53f 53f
4:50 4.5ft 7s 6s 7 9 mph 1016.2mb 53f 53f
4:20  -   -   -  7 9 mph 1016.2mb 54f 53f
3:50 4.5ft 7s 6s 9 11 mph 1016.4mb 54f 53f
3:20  -   -   -  9 11 mph 1016.5mb 54f 53f
2:50 4.5ft 7s 6s 7 9 mph 1016.4mb 54f 53f
2:20  -   -   -  9
mph
1016.5mb 54f 53f
1:50 4.5ft 7s 6s 7 9 mph 1016.7mb 54f 53f
1:20  -   -   -  4 7 mph 1016.8mb 54f 53f
12:50 4.5ft 8s 6s 4 7 mph 1017.1mb 54f 53f
12:20  -   -   -  4 7 mph 1017.4mb 54f 53f
11:50 5ft 8s 6s 4 7 mph 1017.4mb 53f 53f
11:20  -   -   -  2 4 mph 1017.3mb 53f 53f
10:50 5.5ft 8s 7s 2
mph
1017.2mb 53f 52f
10:20  -   -   -   -  2 mph 1017.3mb 53f 51f
9:50 5ft 8s 7s 2 4 mph 1017.2mb 53f 51f
9:20  -   -   -   -  2 mph 1017.1mb 53f 51f
8:50 5ft 8s 7s 2 4 mph 1017mb 52f 50f
8:20  -   -   -  2 4 mph 1017.2mb 53f 50f
7:50 5ft 8s 7s 2 4 mph 1017mb 53f 49f
7:20  -   -   -  2 4 mph 1016.8mb 53f 50f
6:50 5ft 8s 7s  -  2 mph 1016.7mb 53f 50f
6:20  -   -   -   -  4 mph 1016.5mb 53f 50f
5:50 5.5ft 8s 7s  -  2 mph 1016.2mb 53f 50f
5:20  -   -   -  2 4 mph 1016.1mb 53f 50f
4:50 5ft 8s 7s  -  2 mph 1016mb 53f 50f
4:20  -   -   -  2 4 mph 1016mb 53f 50f
3:50 5.5ft 8s 7s 4 7 mph 1016mb 53f 50f
3:20  -   -   -  2 4 mph 1015.9mb 53f 50f
2:50 5ft 8s 7s 4 7 mph 1016.2mb 53f 50f
2:20  -   -   -  2 4 mph 1015.9mb 53f 50f
1:50 4.5ft 8s 6s 4
mph
1015.9mb 53f 51f
1:20  -   -   -  2 4 mph 1015.7mb 53f 51f
12:50 5ft 8s 7s 4 7 mph 1015.9mb 53f 51f
12:20  -   -   -  4 7 mph 1016mb 53f 51f
dom 08/24 11:50 4.5ft 8s 6s 4 7 mph 1016.1mb 53f 51f
11:20  -   -   -  4 7 mph 1016.1mb 53f 51f
10:50 4.5ft 7s 7s 4 7 mph 1015.9mb 53f 51f
10:20  -   -   -  4 7 mph 1015.9mb 53f 51f
9:50 4ft 7s 6s 4 7 mph 1015.6mb 53f 52f
9:20  -   -   -  4 7 mph 1015.5mb 53f 52f
8:50 3.5ft 7s 6s 4 7 mph 1015.4mb 53f 52f
8:20  -   -   -  7
mph
1015mb 53f 53f
7:50 4ft 7s 6s 7 9 mph 1015mb 53f 53f
7:20  -   -   -  9
mph
1014.9mb 53f 53f
6:50 3.5ft 6s 6s 9
mph
1014.8mb 54f 54f
6:20  -   -   -  9 11 mph 1014.9mb 53f 54f
5:50 3ft 6s 6s 9 11 mph 1014.7mb 54f 54f
5:20  -   -   -  7 9 mph 1014.5mb 55f 55f
4:50 3ft 6s 6s 7 9 mph 1014.6mb 55f 55f
4:20  -   -   -  4 7 mph 1014.8mb 55f 55f
3:50 3ft 6s 5s 4 7 mph 1014.9mb 54f 56f
3:20  -   -   -  4
mph
1015mb 54f 56f
2:50 3.5ft 6s 5s 2 4 mph 1015.1mb 54f 56f
2:20  -   -   -  2 4 mph 1015.1mb 54f 56f
1:50 3.5ft 6s 5s 2 4 mph 1015.3mb 54f 56f
1:20  -   -   -  2
mph
1015.3mb 53f 56f